< < Back
Terminal Aerodrome Forecast


Current Version              Previous Versions:   1  2  3  4  5  6  7  8  9  

Terminal Aerodrome Forecast

481
FTUS42 KCHS 201800 AAA
TAFSAV
TAF AMD
KSAV 201836Z 2019/2118 02013KT P6SM SCT020 BKN050
     FM210000 01011KT P6SM SCT035=



Latest METAR

580
SAUS80 KWBC 202300
MTRSAV
METAR KSAV 202253Z 02012KT 10SM SCT035 BKN050 BKN150 20/11 A3009 RMK AO2
SLP189 T02000106


USA.gov is the U.S. government's official web portal to all federal, state and local government web resources and services.